createdAt,value
2023-03-21T00:01:50.203Z,60.46
2023-03-21T00:04:16.691Z,59.63
2023-03-21T00:06:43.169Z,60.03
2023-03-21T00:09:09.636Z,60.31
2023-03-21T00:11:36.097Z,59.44
2023-03-21T00:14:02.591Z,59.99
2023-03-21T00:16:38.517Z,60.42
2023-03-21T00:19:07.225Z,60.95
2023-03-21T00:24:20.240Z,60.66
2023-03-21T00:26:47.040Z,60.08
2023-03-21T00:29:13.593Z,60.39
2023-03-21T00:31:40.092Z,60.49
2023-03-21T00:34:06.568Z,60.86
2023-03-21T00:36:33.075Z,60.85
2023-03-21T00:38:59.559Z,60.57
2023-03-21T00:41:41.401Z,60.41
2023-03-21T00:44:10.142Z,60.59
2023-03-21T00:46:45.608Z,60.89
2023-03-21T00:49:15.828Z,60.38
2023-03-21T00:51:42.728Z,60.53
2023-03-21T00:54:12.316Z,60.52
2023-03-21T00:56:38.827Z,61.01
2023-03-21T00:59:05.306Z,60.99
2023-03-21T01:01:31.872Z,60.66
2023-03-21T01:03:59.585Z,60.81
2023-03-21T01:06:26.056Z,60.97
2023-03-21T01:08:53.525Z,60.57
2023-03-21T01:11:27.149Z,61.26
2023-03-21T01:14:04.026Z,61.00
2023-03-21T01:16:31.282Z,60.97
2023-03-21T01:18:57.968Z,61.14
2023-03-21T01:21:24.488Z,61.21
2023-03-21T01:23:51.150Z,60.62
2023-03-21T01:26:18.843Z,61.29
2023-03-21T01:28:46.270Z,60.97
2023-03-21T01:31:15.934Z,60.72
2023-03-21T01:33:43.476Z,61.20
2023-03-21T01:36:20.431Z,61.70
2023-03-21T01:38:48.481Z,61.58
2023-03-21T01:41:42.608Z,61.48
2023-03-21T01:44:15.526Z,62.30
2023-03-21T01:47:00.132Z,61.53
2023-03-21T01:49:40.466Z,60.86
2023-03-21T01:52:23.584Z,61.15
2023-03-21T01:54:56.661Z,61.35
2023-03-21T01:57:41.006Z,61.43
2023-03-21T02:00:10.849Z,61.83
2023-03-21T02:02:39.887Z,61.90
2023-03-21T02:05:06.643Z,62.69
2023-03-21T02:07:36.341Z,61.50
2023-03-21T02:10:06.955Z,61.79
2023-03-21T02:12:33.909Z,61.89
2023-03-21T02:15:00.808Z,62.09
2023-03-21T02:17:56.439Z,62.15
2023-03-21T02:20:54.798Z,61.82
2023-03-21T02:23:48.914Z,62.17
2023-03-21T02:26:48.221Z,62.72
2023-03-21T02:29:41.513Z,61.85
2023-03-21T02:32:18.180Z,61.60
2023-03-21T02:35:19.470Z,61.69
2023-03-21T02:38:00.776Z,62.20
2023-03-21T02:40:39.379Z,62.27
2023-03-21T02:43:38.050Z,61.89
2023-03-21T02:46:24.164Z,62.14
2023-03-21T02:49:07.140Z,62.22
2023-03-21T02:51:36.709Z,62.11
2023-03-21T02:54:45.271Z,62.14
2023-03-21T02:57:02.315Z,61.67
2023-03-21T02:59:29.853Z,62.31
2023-03-21T03:01:56.396Z,61.96
2023-03-21T03:04:26.301Z,62.83
2023-03-21T03:07:02.780Z,62.79
2023-03-21T03:10:13.988Z,62.06
2023-03-21T03:13:11.190Z,61.81
2023-03-21T03:16:08.338Z,62.37
2023-03-21T03:18:52.368Z,62.65
2023-03-21T03:21:55.055Z,62.73
2023-03-21T03:24:26.727Z,62.12
2023-03-21T03:26:59.644Z,62.13
2023-03-21T03:29:30.518Z,62.19
2023-03-21T03:32:10.542Z,61.63
2023-03-21T03:34:42.836Z,62.16
2023-03-21T03:37:15.577Z,61.73
2023-03-21T03:39:57.852Z,61.88
2023-03-21T03:42:36.911Z,61.87
2023-03-21T03:45:06.487Z,62.12
2023-03-21T03:47:57.039Z,61.76
2023-03-21T03:50:31.930Z,62.42
2023-03-21T03:53:17.579Z,61.72
2023-03-21T03:55:45.603Z,61.13
2023-03-21T03:58:21.766Z,62.02
2023-03-21T04:00:51.299Z,62.51
2023-03-21T04:03:17.822Z,62.20
2023-03-21T04:05:44.459Z,62.31
2023-03-21T04:08:10.962Z,61.94
2023-03-21T04:10:37.655Z,61.53
2023-03-21T04:13:04.344Z,61.87
2023-03-21T04:15:30.819Z,61.66
2023-03-21T04:17:57.331Z,61.76
2023-03-21T04:20:36.107Z,61.61
2023-03-21T04:23:10.303Z,61.62
2023-03-21T04:25:44.678Z,61.37
2023-03-21T04:28:14.278Z,62.46
2023-03-21T04:30:41.193Z,61.88
2023-03-21T04:33:07.837Z,62.42
2023-03-21T04:35:37.041Z,62.24
2023-03-21T04:38:04.020Z,61.75
2023-03-21T04:40:30.493Z,61.70
2023-03-21T04:42:56.965Z,61.40
2023-03-21T04:45:23.512Z,62.04
2023-03-21T04:47:50.114Z,61.72
2023-03-21T04:50:16.605Z,61.27
2023-03-21T04:52:43.103Z,61.72
2023-03-21T04:55:09.940Z,61.49
2023-03-21T04:57:39.926Z,61.56
2023-03-21T05:00:08.478Z,61.93
2023-03-21T05:02:35.081Z,61.81
2023-03-21T05:05:01.563Z,61.88
2023-03-21T05:07:28.054Z,61.80
2023-03-21T05:09:54.549Z,62.32
2023-03-21T05:12:21.047Z,62.42
2023-03-21T05:14:47.505Z,63.32
2023-03-21T05:17:14.086Z,63.52
2023-03-21T05:19:40.889Z,63.28
2023-03-21T05:22:10.390Z,62.77
2023-03-21T05:24:37.719Z,62.54
2023-03-21T05:27:04.216Z,62.82
2023-03-21T05:29:32.523Z,62.18
2023-03-21T05:32:00.825Z,62.21
2023-03-21T05:34:28.660Z,61.94
2023-03-21T05:36:55.347Z,62.18
2023-03-21T05:39:22.309Z,62.87
2023-03-21T05:41:49.125Z,62.88
2023-03-21T05:44:15.588Z,62.84
2023-03-21T05:46:42.079Z,62.50
2023-03-21T05:49:10.119Z,62.58
2023-03-21T05:51:36.739Z,62.68
2023-03-21T05:54:03.306Z,62.33
2023-03-21T05:56:29.814Z,62.76
2023-03-21T05:58:56.354Z,62.78
2023-03-21T06:01:22.891Z,62.84
2023-03-21T06:03:49.454Z,62.76
2023-03-21T06:06:16.052Z,62.83
2023-03-21T06:08:42.614Z,62.88
2023-03-21T06:11:22.926Z,62.97
2023-03-21T06:13:49.424Z,62.95
2023-03-21T06:16:15.926Z,62.67
2023-03-21T06:18:42.443Z,62.40
2023-03-21T06:21:08.938Z,62.27
2023-03-21T06:23:35.407Z,62.38
2023-03-21T06:26:02.171Z,63.48
2023-03-21T06:28:28.633Z,63.24
2023-03-21T06:30:55.237Z,62.77
2023-03-21T06:33:21.788Z,62.31
2023-03-21T06:35:55.668Z,62.55
2023-03-21T06:38:23.324Z,62.49
2023-03-21T06:40:49.991Z,62.24
2023-03-21T06:43:16.717Z,61.84
2023-03-21T06:45:44.044Z,61.72
2023-03-21T06:48:11.839Z,62.34
2023-03-21T06:50:38.402Z,61.93
2023-03-21T06:53:06.079Z,62.08
2023-03-21T06:55:32.580Z,61.86
2023-03-21T06:57:59.109Z,61.70
2023-03-21T07:00:25.858Z,61.69
2023-03-21T07:02:52.540Z,61.92
2023-03-21T07:05:19.238Z,60.72
2023-03-21T07:07:45.724Z,61.61
2023-03-21T07:10:12.608Z,63.66
2023-03-21T07:12:39.108Z,64.18
2023-03-21T07:15:07.384Z,64.83
2023-03-21T07:17:34.112Z,65.25
2023-03-21T07:20:00.617Z,64.01
2023-03-21T07:22:27.108Z,64.31
2023-03-21T07:25:04.299Z,64.57
2023-03-21T07:27:31.497Z,65.34
2023-03-21T07:29:57.992Z,64.79
2023-03-21T07:32:24.502Z,64.22
2023-03-21T07:34:51.013Z,63.48
2023-03-21T07:37:17.499Z,62.89
2023-03-21T07:39:44.104Z,63.31
2023-03-21T07:42:10.608Z,63.25
2023-03-21T07:44:37.176Z,63.58
2023-03-21T07:47:05.288Z,63.34
2023-03-21T07:49:31.979Z,63.22
2023-03-21T07:51:58.566Z,63.29
2023-03-21T07:54:25.227Z,63.07
2023-03-21T07:56:51.806Z,63.64
2023-03-21T07:59:18.341Z,62.74
2023-03-21T08:01:44.798Z,63.51
2023-03-21T08:04:11.799Z,63.93
2023-03-21T08:06:38.458Z,63.27
2023-03-21T08:09:05.253Z,64.02
2023-03-21T08:11:31.837Z,62.69
2023-03-21T08:13:59.548Z,62.23
2023-03-21T08:16:26.736Z,62.09
2023-03-21T08:18:53.464Z,62.11
2023-03-21T08:21:19.958Z,61.32
2023-03-21T08:23:46.522Z,60.65
2023-03-21T08:26:13.071Z,60.52
2023-03-21T08:28:39.672Z,60.52
2023-03-21T08:31:11.691Z,59.01
2023-03-21T08:33:38.669Z,58.95
2023-03-21T08:36:06.711Z,58.27
2023-03-21T08:38:33.250Z,57.74
2023-03-21T08:41:00.748Z,58.07
2023-03-21T08:43:28.654Z,57.80
2023-03-21T08:45:55.941Z,57.20
2023-03-21T08:48:23.154Z,58.02
2023-03-21T08:50:49.793Z,57.93
2023-03-21T08:53:16.293Z,58.02
2023-03-21T08:55:44.195Z,57.80
2023-03-21T08:58:10.710Z,56.91
2023-03-21T09:00:37.388Z,57.11
2023-03-21T09:03:03.964Z,56.26
2023-03-21T09:05:30.716Z,55.92
2023-03-21T09:07:57.185Z,55.67
2023-03-21T09:10:43.664Z,55.28
2023-03-21T09:13:30.128Z,54.58
2023-03-21T09:16:16.612Z,54.24
2023-03-21T09:19:03.363Z,53.66
2023-03-21T09:21:30.935Z,52.96
2023-03-21T09:23:58.185Z,53.09
2023-03-21T09:26:25.477Z,53.04
2023-03-21T09:28:51.949Z,53.36
2023-03-21T09:31:19.212Z,53.52
2023-03-21T09:33:45.713Z,53.16
2023-03-21T09:36:12.499Z,54.55
2023-03-21T09:38:39.276Z,53.98
2023-03-21T09:41:05.725Z,52.44
2023-03-21T09:43:50.757Z,51.69
2023-03-21T09:46:26.764Z,50.46
2023-03-21T09:48:58.222Z,49.34
2023-03-21T09:51:36.070Z,49.21
2023-03-21T09:54:12.524Z,49.04
2023-03-21T09:56:44.720Z,48.39
2023-03-21T09:59:33.374Z,47.94
2023-03-21T10:02:00.947Z,48.68
2023-03-21T10:04:27.684Z,50.64
2023-03-21T10:07:00.951Z,50.76
2023-03-21T10:09:31.071Z,51.55
2023-03-21T10:12:22.056Z,51.36
2023-03-21T10:14:53.744Z,50.95
2023-03-21T10:17:35.249Z,51.25
2023-03-21T10:20:15.368Z,50.96
2023-03-21T10:22:44.789Z,50.90
2023-03-21T10:25:17.262Z,49.89
2023-03-21T10:27:45.886Z,50.08
2023-03-21T10:30:25.985Z,49.74
2023-03-21T10:32:52.846Z,49.58
2023-03-21T10:35:19.945Z,48.72
2023-03-21T10:37:47.187Z,48.33
2023-03-21T10:40:18.138Z,48.42
2023-03-21T10:42:44.947Z,48.49
2023-03-21T10:45:17.748Z,48.55
2023-03-21T10:47:48.383Z,47.44
2023-03-21T10:50:18.248Z,47.15
2023-03-21T10:52:51.311Z,46.80
2023-03-21T10:55:26.253Z,47.15
2023-03-21T10:58:07.663Z,47.27
2023-03-21T11:00:40.167Z,46.75
2023-03-21T11:03:19.706Z,47.07
2023-03-21T11:05:47.848Z,47.01
2023-03-21T11:08:19.444Z,47.03
2023-03-21T11:10:55.116Z,46.63
2023-03-21T11:13:47.226Z,46.29
2023-03-21T11:16:29.851Z,46.90
2023-03-21T11:19:01.511Z,47.15
2023-03-21T11:21:35.647Z,47.25
2023-03-21T11:24:03.927Z,47.94
2023-03-21T11:26:35.944Z,47.79
2023-03-21T11:29:29.608Z,47.17
2023-03-21T11:32:12.506Z,47.28
2023-03-21T11:34:49.960Z,46.28
2023-03-21T11:37:46.178Z,46.24
2023-03-21T11:40:30.962Z,46.35
2023-03-21T11:43:00.277Z,46.38
2023-03-21T11:45:37.104Z,46.09
2023-03-21T11:48:14.066Z,46.80
2023-03-21T11:50:47.142Z,45.97
2023-03-21T11:53:35.907Z,46.04
2023-03-21T11:56:20.401Z,43.50
2023-03-21T11:59:01.983Z,42.50
2023-03-21T12:01:44.750Z,43.19
2023-03-21T12:04:29.892Z,43.22
2023-03-21T12:07:08.916Z,43.75
2023-03-21T12:10:03.365Z,42.70
2023-03-21T12:12:39.409Z,42.76
2023-03-21T12:15:13.370Z,42.16
2023-03-21T12:18:07.740Z,42.41
2023-03-21T12:20:45.235Z,42.61
2023-03-21T12:23:40.314Z,41.29
2023-03-21T12:26:19.468Z,41.71
2023-03-21T12:29:00.905Z,41.08
2023-03-21T12:31:53.099Z,40.87
2023-03-21T12:34:57.507Z,40.10
2023-03-21T12:37:39.654Z,40.06
2023-03-21T12:40:19.501Z,40.46
2023-03-21T12:43:08.956Z,40.52
2023-03-21T12:45:47.248Z,40.35
2023-03-21T12:48:35.638Z,40.99
2023-03-21T12:51:08.655Z,41.39
2023-03-21T12:54:03.044Z,40.94
2023-03-21T12:56:55.880Z,41.00
2023-03-21T12:59:44.040Z,40.32
2023-03-21T13:02:23.737Z,40.85
2023-03-21T13:05:01.189Z,40.32
2023-03-21T13:07:34.161Z,39.55
2023-03-21T13:10:03.534Z,38.29
2023-03-21T13:12:45.511Z,37.76
2023-03-21T13:15:46.105Z,36.96
2023-03-21T13:18:31.216Z,36.98
2023-03-21T13:21:04.741Z,36.41
2023-03-21T13:23:38.336Z,36.14
2023-03-21T13:26:10.830Z,35.83
2023-03-21T13:28:41.259Z,36.37
2023-03-21T13:31:26.734Z,36.49
2023-03-21T13:33:58.640Z,35.48
2023-03-21T13:36:29.785Z,35.16
2023-03-21T13:39:02.360Z,35.18
2023-03-21T13:41:36.027Z,35.32
2023-03-21T13:44:02.471Z,35.74
2023-03-21T13:46:28.987Z,34.54
2023-03-21T13:48:59.769Z,35.21
2023-03-21T13:51:29.505Z,34.83
2023-03-21T13:54:06.491Z,34.74
2023-03-21T13:56:44.993Z,34.30
2023-03-21T13:59:17.701Z,34.03
2023-03-21T14:01:59.357Z,33.97
2023-03-21T14:04:42.029Z,33.72
2023-03-21T14:07:14.304Z,33.94
2023-03-21T14:09:47.459Z,34.45
2023-03-21T14:12:18.083Z,34.70
2023-03-21T14:15:06.806Z,34.51
2023-03-21T14:17:36.862Z,34.32
2023-03-21T14:20:18.252Z,33.98
2023-03-21T14:22:48.190Z,33.53
2023-03-21T14:25:18.038Z,33.24
2023-03-21T14:27:51.273Z,33.25
2023-03-21T14:30:33.078Z,32.96
2023-03-21T14:33:07.836Z,32.66
2023-03-21T14:35:35.511Z,32.35
2023-03-21T14:38:06.293Z,32.12
2023-03-21T14:40:32.871Z,32.39
2023-03-21T14:43:05.123Z,32.55
2023-03-21T14:45:35.530Z,32.44
2023-03-21T14:48:15.058Z,32.07
2023-03-21T14:50:51.590Z,32.41
2023-03-21T14:53:33.223Z,32.56
2023-03-21T14:55:59.680Z,32.17
2023-03-21T14:58:27.320Z,32.49
2023-03-21T15:01:00.572Z,32.49
2023-03-21T15:03:27.311Z,32.34
2023-03-21T15:05:56.170Z,32.74
2023-03-21T15:08:25.743Z,33.14
2023-03-21T15:11:07.162Z,33.48
2023-03-21T15:13:50.324Z,33.36
2023-03-21T15:16:19.134Z,33.51
2023-03-21T15:18:46.350Z,33.30
2023-03-21T15:21:20.953Z,33.58
2023-03-21T15:23:53.526Z,33.51
2023-03-21T15:26:24.142Z,33.41
2023-03-21T15:28:56.877Z,33.73
2023-03-21T15:31:29.540Z,33.60
2023-03-21T15:33:56.648Z,34.79
2023-03-21T15:36:32.039Z,34.81
2023-03-21T15:39:06.561Z,35.23
2023-03-21T15:41:33.269Z,35.33
2023-03-21T15:44:02.090Z,35.87
2023-03-21T15:46:41.641Z,36.57
2023-03-21T15:49:09.425Z,36.52
2023-03-21T15:51:36.410Z,36.17
2023-03-21T15:54:04.476Z,37.11
2023-03-21T15:56:34.531Z,37.57
2023-03-21T15:59:04.303Z,37.46
2023-03-21T16:01:33.397Z,37.63
2023-03-21T16:04:09.402Z,37.76
2023-03-21T16:06:52.228Z,38.46
2023-03-21T16:09:19.743Z,38.60
2023-03-21T16:11:54.937Z,37.82
2023-03-21T16:14:23.314Z,37.91
2023-03-21T16:16:50.679Z,38.57
2023-03-21T16:19:17.614Z,38.30
2023-03-21T16:21:44.219Z,37.65
2023-03-21T16:24:11.800Z,38.02
2023-03-21T16:26:43.567Z,37.59
2023-03-21T16:29:14.220Z,37.89
2023-03-21T16:31:41.927Z,37.06
2023-03-21T16:34:08.634Z,37.09
2023-03-21T16:36:38.626Z,36.82
2023-03-21T16:39:18.885Z,37.04
2023-03-21T16:41:46.103Z,36.79
2023-03-21T16:44:12.567Z,36.81
2023-03-21T16:46:39.103Z,36.43
2023-03-21T16:49:05.648Z,36.53
2023-03-21T16:51:35.502Z,37.07
2023-03-21T16:54:02.581Z,36.70
2023-03-21T16:56:38.687Z,36.63
2023-03-21T16:59:06.460Z,36.64
2023-03-21T17:01:33.710Z,36.67
2023-03-21T17:04:00.199Z,37.10
2023-03-21T17:06:29.720Z,37.11
2023-03-21T17:08:57.941Z,36.76
2023-03-21T17:11:27.375Z,36.82
2023-03-21T17:13:54.996Z,36.77
2023-03-21T17:16:26.770Z,37.49
2023-03-21T17:18:55.370Z,37.19
2023-03-21T17:21:25.204Z,37.15
2023-03-21T17:23:52.598Z,37.01
2023-03-21T17:26:25.723Z,37.05
2023-03-21T17:28:55.233Z,37.79
2023-03-21T17:31:24.377Z,37.41
2023-03-21T17:33:51.507Z,38.14
2023-03-21T17:36:23.006Z,38.31
2023-03-21T17:38:49.502Z,38.44
2023-03-21T17:41:18.608Z,38.23
2023-03-21T17:43:45.535Z,38.47
2023-03-21T17:46:18.446Z,38.11
2023-03-21T17:48:45.753Z,38.26
2023-03-21T17:51:13.434Z,38.26
2023-03-21T17:53:40.534Z,38.64
2023-03-21T17:56:14.436Z,40.27
2023-03-21T17:58:41.099Z,40.45
2023-03-21T18:01:07.778Z,40.51
2023-03-21T18:03:34.480Z,40.42
2023-03-21T18:06:01.024Z,40.89
2023-03-21T18:08:27.539Z,40.45
2023-03-21T18:10:53.992Z,41.15
2023-03-21T18:13:20.439Z,41.95
2023-03-21T18:15:48.342Z,41.39
2023-03-21T18:18:14.931Z,40.72
2023-03-21T18:20:58.503Z,40.68
2023-03-21T18:23:25.679Z,40.55
2023-03-21T18:25:52.326Z,40.92
2023-03-21T18:28:21.277Z,41.05
2023-03-21T18:33:39.781Z,41.22
2023-03-21T18:36:08.133Z,41.55
2023-03-21T18:38:35.409Z,42.17
2023-03-21T18:41:02.142Z,42.51
2023-03-21T18:46:15.410Z,42.72
2023-03-21T18:48:41.927Z,42.47
2023-03-21T18:51:08.412Z,42.86
2023-03-21T18:53:34.948Z,43.02
2023-03-21T18:56:01.997Z,43.17
2023-03-21T18:58:28.548Z,43.23
2023-03-21T19:00:57.175Z,43.93
2023-03-21T19:03:35.669Z,43.75
2023-03-21T19:06:05.095Z,43.42
2023-03-21T19:08:32.685Z,44.42
2023-03-21T19:11:04.356Z,44.24
2023-03-21T19:13:35.692Z,44.36
2023-03-21T19:16:03.106Z,44.73
2023-03-21T19:18:50.248Z,45.60
2023-03-21T19:21:17.407Z,45.64
2023-03-21T19:24:20.961Z,45.68
2023-03-21T19:26:30.586Z,46.50
2023-03-21T19:28:57.054Z,45.99
2023-03-21T19:31:23.719Z,45.77
2023-03-21T19:33:50.746Z,46.13
2023-03-21T19:36:22.163Z,45.58
2023-03-21T19:38:51.313Z,46.21
2023-03-21T19:41:20.213Z,46.54
2023-03-21T19:43:54.121Z,46.33
2023-03-21T19:46:22.706Z,46.75
2023-03-21T19:48:49.188Z,47.00
2023-03-21T19:51:31.191Z,46.52
2023-03-21T19:54:04.394Z,46.46
2023-03-21T19:56:31.889Z,46.83
2023-03-21T19:58:59.279Z,46.75
2023-03-21T20:01:25.841Z,47.61
2023-03-21T20:03:52.594Z,47.74
2023-03-21T20:06:20.211Z,47.50
2023-03-21T20:09:33.955Z,47.72
2023-03-21T20:11:33.894Z,48.06
2023-03-21T20:14:00.677Z,47.51
2023-03-21T20:16:34.255Z,47.44
2023-03-21T20:19:01.344Z,47.66
2023-03-21T20:21:33.792Z,47.85
2023-03-21T20:24:06.806Z,47.82
2023-03-21T20:26:33.459Z,47.70
2023-03-21T20:29:37.280Z,48.29
2023-03-21T20:31:46.373Z,47.95
2023-03-21T20:34:12.983Z,48.51
2023-03-21T20:36:41.287Z,48.30
2023-03-21T20:39:09.752Z,48.42
2023-03-21T20:41:36.930Z,48.12
2023-03-21T20:46:50.313Z,48.61
2023-03-21T20:49:16.862Z,48.68
2023-03-21T20:54:30.122Z,48.35
2023-03-21T20:56:56.704Z,48.64
2023-03-21T20:59:27.304Z,48.10
2023-03-21T21:01:57.874Z,48.87
2023-03-21T21:04:43.160Z,49.03
2023-03-21T21:07:19.281Z,48.39
2023-03-21T21:09:46.950Z,48.52
2023-03-21T21:12:15.215Z,48.46
2023-03-21T21:14:42.483Z,48.20
2023-03-21T21:17:40.657Z,48.42
2023-03-21T21:19:56.162Z,49.85
2023-03-21T21:22:22.683Z,49.49
2023-03-21T21:24:49.180Z,48.69
2023-03-21T21:27:15.648Z,48.62
2023-03-21T21:29:42.122Z,48.29
2023-03-21T21:32:08.669Z,48.77
2023-03-21T21:34:35.125Z,48.18
2023-03-21T21:37:01.675Z,48.51
2023-03-21T21:39:28.130Z,48.25
2023-03-21T21:41:54.622Z,47.88
2023-03-21T21:44:21.090Z,47.35
2023-03-21T21:46:47.675Z,47.98
2023-03-21T21:49:14.258Z,47.97
2023-03-21T21:51:40.764Z,47.11
2023-03-21T21:54:07.253Z,47.32
2023-03-21T21:56:34.233Z,47.18
2023-03-21T21:59:01.520Z,47.33
2023-03-21T22:01:29.316Z,47.20
2023-03-21T22:03:56.848Z,47.68
2023-03-21T22:06:24.229Z,47.66
2023-03-21T22:08:50.721Z,47.20
2023-03-21T22:11:18.328Z,47.46
2023-03-21T22:13:45.300Z,47.09
2023-03-21T22:16:11.864Z,46.85
2023-03-21T22:18:38.464Z,46.38
2023-03-21T22:21:06.188Z,47.10
2023-03-21T22:23:32.983Z,46.97
2023-03-21T22:25:59.737Z,46.51
2023-03-21T22:28:26.416Z,46.88
2023-03-21T22:30:53.547Z,47.48
2023-03-21T22:33:20.519Z,47.25
2023-03-21T22:35:47.313Z,47.41
2023-03-21T22:38:13.818Z,47.63
2023-03-21T22:40:40.511Z,47.97
2023-03-21T22:43:07.226Z,48.23
2023-03-21T22:45:33.781Z,48.13
2023-03-21T22:48:00.575Z,48.11
2023-03-21T22:50:28.150Z,47.81
2023-03-21T22:52:54.626Z,47.58
2023-03-21T22:55:21.124Z,47.41
2023-03-21T22:57:47.625Z,47.65
2023-03-21T23:00:14.535Z,48.77
2023-03-21T23:02:41.539Z,48.57
2023-03-21T23:05:09.727Z,48.09
2023-03-21T23:07:36.312Z,47.13
2023-03-21T23:10:03.789Z,48.00
2023-03-21T23:12:30.714Z,48.33
2023-03-21T23:14:57.316Z,48.80
2023-03-21T23:17:23.845Z,48.45
2023-03-21T23:19:50.413Z,48.09
2023-03-21T23:22:16.927Z,48.63
2023-03-21T23:24:43.423Z,48.60
2023-03-21T23:27:09.952Z,48.82
2023-03-21T23:29:36.446Z,48.54
2023-03-21T23:32:03.105Z,48.60
2023-03-21T23:34:29.672Z,48.61
2023-03-21T23:36:56.154Z,49.27
2023-03-21T23:39:22.628Z,49.68
2023-03-21T23:41:49.093Z,48.84
2023-03-21T23:44:15.595Z,49.19
2023-03-21T23:46:42.094Z,48.91
2023-03-21T23:49:09.281Z,49.11
2023-03-21T23:51:35.785Z,47.67
2023-03-21T23:54:02.281Z,48.22
2023-03-21T23:56:28.758Z,48.97
2023-03-21T23:58:57.387Z,49.38
